sensor_id;sensor_type;location;lat;lon;timestamp;temperature;humidity
10873;DHT22;34586;53.616;10.032;2022-12-07T00:01:34;4.10;99.90
10873;DHT22;34586;53.616;10.032;2022-12-07T00:04:01;4.50;99.90
10873;DHT22;34586;53.616;10.032;2022-12-07T00:06:36;4.50;99.90
10873;DHT22;34586;53.616;10.032;2022-12-07T00:09:03;4.50;99.90
10873;DHT22;34586;53.616;10.032;2022-12-07T00:11:29;4.50;99.90
10873;DHT22;34586;53.616;10.032;2022-12-07T00:13:57;4.50;99.90
10873;DHT22;34586;53.616;10.032;2022-12-07T00:16:25;4.50;99.90
10873;DHT22;34586;53.616;10.032;2022-12-07T00:18:52;4.60;99.90
10873;DHT22;34586;53.616;10.032;2022-12-07T00:21:20;4.60;99.90
10873;DHT22;34586;53.616;10.032;2022-12-07T00:23:48;4.60;99.90
10873;DHT22;34586;53.616;10.032;2022-12-07T00:26:23;4.50;99.90
10873;DHT22;34586;53.616;10.032;2022-12-07T00:28:57;4.40;99.90
10873;DHT22;34586;53.616;10.032;2022-12-07T00:31:26;4.50;99.90
10873;DHT22;34586;53.616;10.032;2022-12-07T00:33:52;4.50;99.90
10873;DHT22;34586;53.616;10.032;2022-12-07T00:36:20;4.50;99.90
10873;DHT22;34586;53.616;10.032;2022-12-07T00:38:46;4.50;99.90
10873;DHT22;34586;53.616;10.032;2022-12-07T00:41:13;4.50;99.90
10873;DHT22;34586;53.616;10.032;2022-12-07T00:43:40;4.50;99.90
10873;DHT22;34586;53.616;10.032;2022-12-07T00:46:06;4.50;99.90
10873;DHT22;34586;53.616;10.032;2022-12-07T00:48:31;4.60;99.90
10873;DHT22;34586;53.616;10.032;2022-12-07T00:50:57;4.50;99.90
10873;DHT22;34586;53.616;10.032;2022-12-07T00:53:24;4.40;99.90
10873;DHT22;34586;53.616;10.032;2022-12-07T00:55:49;4.40;99.90
10873;DHT22;34586;53.616;10.032;2022-12-07T00:58:15;4.40;99.90
10873;DHT22;34586;53.616;10.032;2022-12-07T01:00:42;4.40;99.90
10873;DHT22;34586;53.616;10.032;2022-12-07T01:03:10;4.30;99.90
10873;DHT22;34586;53.616;10.032;2022-12-07T01:05:36;4.40;99.90
10873;DHT22;34586;53.616;10.032;2022-12-07T01:08:02;4.40;99.90
10873;DHT22;34586;53.616;10.032;2022-12-07T01:10:29;4.50;99.90
10873;DHT22;34586;53.616;10.032;2022-12-07T01:12:56;4.60;99.90
10873;DHT22;34586;53.616;10.032;2022-12-07T01:15:22;4.50;99.90
10873;DHT22;34586;53.616;10.032;2022-12-07T01:17:47;4.50;99.90
10873;DHT22;34586;53.616;10.032;2022-12-07T01:20:13;4.50;99.90
10873;DHT22;34586;53.616;10.032;2022-12-07T01:22:41;4.50;99.90
10873;DHT22;34586;53.616;10.032;2022-12-07T01:25:08;4.50;99.90
10873;DHT22;34586;53.616;10.032;2022-12-07T01:27:35;4.50;99.90
10873;DHT22;34586;53.616;10.032;2022-12-07T01:30:01;4.60;99.90
10873;DHT22;34586;53.616;10.032;2022-12-07T01:32:27;4.40;99.90
10873;DHT22;34586;53.616;10.032;2022-12-07T01:34:53;4.30;99.90
10873;DHT22;34586;53.616;10.032;2022-12-07T01:37:19;4.30;99.90
10873;DHT22;34586;53.616;10.032;2022-12-07T01:39:44;4.40;99.90
10873;DHT22;34586;53.616;10.032;2022-12-07T01:42:13;4.40;99.90
10873;DHT22;34586;53.616;10.032;2022-12-07T01:47:44;4.40;99.90
10873;DHT22;34586;53.616;10.032;2022-12-07T01:50:11;4.30;99.90
10873;DHT22;34586;53.616;10.032;2022-12-07T01:52:38;4.20;99.90
10873;DHT22;34586;53.616;10.032;2022-12-07T01:55:07;4.20;99.90
10873;DHT22;34586;53.616;10.032;2022-12-07T01:57:35;4.10;99.90
10873;DHT22;34586;53.616;10.032;2022-12-07T02:00:04;4.10;99.90
10873;DHT22;34586;53.616;10.032;2022-12-07T02:02:36;4.00;99.90
10873;DHT22;34586;53.616;10.032;2022-12-07T02:05:05;4.00;99.90
10873;DHT22;34586;53.616;10.032;2022-12-07T02:07:31;4.00;99.90
10873;DHT22;34586;53.616;10.032;2022-12-07T02:10:11;4.00;99.90
10873;DHT22;34586;53.616;10.032;2022-12-07T02:12:36;3.90;99.90
10873;DHT22;34586;53.616;10.032;2022-12-07T02:15:02;3.90;99.90
10873;DHT22;34586;53.616;10.032;2022-12-07T02:17:44;3.90;99.90
10873;DHT22;34586;53.616;10.032;2022-12-07T02:20:23;3.80;99.90
10873;DHT22;34586;53.616;10.032;2022-12-07T02:28:35;3.70;99.90
10873;DHT22;34586;53.616;10.032;2022-12-07T02:31:12;3.70;99.90
10873;DHT22;34586;53.616;10.032;2022-12-07T02:34:09;3.70;99.90
10873;DHT22;34586;53.616;10.032;2022-12-07T02:36:43;3.80;99.90
10873;DHT22;34586;53.616;10.032;2022-12-07T02:39:26;3.70;99.90
10873;DHT22;34586;53.616;10.032;2022-12-07T02:41:59;3.70;99.90
10873;DHT22;34586;53.616;10.032;2022-12-07T02:44:28;3.70;99.90
10873;DHT22;34586;53.616;10.032;2022-12-07T02:47:14;3.70;99.90
10873;DHT22;34586;53.616;10.032;2022-12-07T02:49:41;3.70;99.90
10873;DHT22;34586;53.616;10.032;2022-12-07T02:52:07;3.70;99.90
10873;DHT22;34586;53.616;10.032;2022-12-07T02:54:33;3.60;99.90
10873;DHT22;34586;53.616;10.032;2022-12-07T03:04:42;3.40;99.90
10873;DHT22;34586;53.616;10.032;2022-12-07T03:09:58;3.30;99.90
10873;DHT22;34586;53.616;10.032;2022-12-07T03:12:32;3.40;99.90
10873;DHT22;34586;53.616;10.032;2022-12-07T03:15:12;3.30;99.90
10873;DHT22;34586;53.616;10.032;2022-12-07T03:17:40;3.30;99.90
10873;DHT22;34586;53.616;10.032;2022-12-07T03:20:09;3.30;99.90
10873;DHT22;34586;53.616;10.032;2022-12-07T03:22:38;3.30;99.90
10873;DHT22;34586;53.616;10.032;2022-12-07T03:25:09;3.30;99.90
10873;DHT22;34586;53.616;10.032;2022-12-07T03:27:47;3.30;99.90
10873;DHT22;34586;53.616;10.032;2022-12-07T03:30:20;3.20;99.90
10873;DHT22;34586;53.616;10.032;2022-12-07T03:32:58;3.10;99.90
10873;DHT22;34586;53.616;10.032;2022-12-07T03:35:39;3.10;99.90
10873;DHT22;34586;53.616;10.032;2022-12-07T03:38:20;3.10;99.90
10873;DHT22;34586;53.616;10.032;2022-12-07T03:41:24;3.10;99.90
10873;DHT22;34586;53.616;10.032;2022-12-07T03:43:51;3.10;99.90
10873;DHT22;34586;53.616;10.032;2022-12-07T03:46:32;3.10;99.90
10873;DHT22;34586;53.616;10.032;2022-12-07T03:49:22;3.00;99.90
10873;DHT22;34586;53.616;10.032;2022-12-07T03:54:45;3.00;99.90
10873;DHT22;34586;53.616;10.032;2022-12-07T03:57:13;3.00;99.90
10873;DHT22;34586;53.616;10.032;2022-12-07T03:59:39;3.00;99.90
10873;DHT22;34586;53.616;10.032;2022-12-07T04:02:07;3.00;99.90
10873;DHT22;34586;53.616;10.032;2022-12-07T04:04:33;2.90;99.90
10873;DHT22;34586;53.616;10.032;2022-12-07T04:06:59;2.90;99.90
10873;DHT22;34586;53.616;10.032;2022-12-07T04:09:25;2.90;99.90
10873;DHT22;34586;53.616;10.032;2022-12-07T04:11:51;2.80;99.90
10873;DHT22;34586;53.616;10.032;2022-12-07T04:14:16;2.80;99.90
10873;DHT22;34586;53.616;10.032;2022-12-07T04:16:46;2.80;99.90
10873;DHT22;34586;53.616;10.032;2022-12-07T04:19:12;2.80;99.90
10873;DHT22;34586;53.616;10.032;2022-12-07T04:21:38;2.80;99.90
10873;DHT22;34586;53.616;10.032;2022-12-07T04:24:06;2.70;99.90
10873;DHT22;34586;53.616;10.032;2022-12-07T04:26:31;2.70;99.90
10873;DHT22;34586;53.616;10.032;2022-12-07T04:28:57;2.70;99.90
10873;DHT22;34586;53.616;10.032;2022-12-07T04:31:23;2.70;99.90
10873;DHT22;34586;53.616;10.032;2022-12-07T04:33:48;2.70;99.90
10873;DHT22;34586;53.616;10.032;2022-12-07T04:36:14;2.70;99.90
10873;DHT22;34586;53.616;10.032;2022-12-07T04:38:39;2.80;99.90
10873;DHT22;34586;53.616;10.032;2022-12-07T04:41:09;2.60;99.90
10873;DHT22;34586;53.616;10.032;2022-12-07T04:43:35;2.60;99.90
10873;DHT22;34586;53.616;10.032;2022-12-07T04:46:01;2.60;99.90
10873;DHT22;34586;53.616;10.032;2022-12-07T04:48:27;2.60;99.90
10873;DHT22;34586;53.616;10.032;2022-12-07T04:50:53;2.60;99.90
10873;DHT22;34586;53.616;10.032;2022-12-07T04:53:19;2.60;99.90
10873;DHT22;34586;53.616;10.032;2022-12-07T04:55:45;2.50;99.90
10873;DHT22;34586;53.616;10.032;2022-12-07T04:58:11;2.50;99.90
10873;DHT22;34586;53.616;10.032;2022-12-07T05:00:37;2.50;99.90
10873;DHT22;34586;53.616;10.032;2022-12-07T05:03:03;2.40;99.90
10873;DHT22;34586;53.616;10.032;2022-12-07T05:05:29;2.50;99.90
10873;DHT22;34586;53.616;10.032;2022-12-07T05:07:54;2.50;99.90
10873;DHT22;34586;53.616;10.032;2022-12-07T05:10:20;2.50;99.90
10873;DHT22;34586;53.616;10.032;2022-12-07T05:12:45;2.50;99.90
10873;DHT22;34586;53.616;10.032;2022-12-07T05:15:12;2.50;99.90
10873;DHT22;34586;53.616;10.032;2022-12-07T05:17:38;2.60;99.90
10873;DHT22;34586;53.616;10.032;2022-12-07T05:20:04;2.60;99.90
10873;DHT22;34586;53.616;10.032;2022-12-07T05:22:30;2.60;99.90
10873;DHT22;34586;53.616;10.032;2022-12-07T05:24:56;2.60;99.90
10873;DHT22;34586;53.616;10.032;2022-12-07T05:27:22;2.50;99.90
10873;DHT22;34586;53.616;10.032;2022-12-07T05:29:49;2.50;99.90
10873;DHT22;34586;53.616;10.032;2022-12-07T05:32:15;2.50;99.90
10873;DHT22;34586;53.616;10.032;2022-12-07T05:34:40;2.50;99.90
10873;DHT22;34586;53.616;10.032;2022-12-07T05:37:06;2.50;99.90
10873;DHT22;34586;53.616;10.032;2022-12-07T05:39:31;2.50;99.90
10873;DHT22;34586;53.616;10.032;2022-12-07T05:41:57;2.60;99.90
10873;DHT22;34586;53.616;10.032;2022-12-07T05:44:45;2.60;99.90
10873;DHT22;34586;53.616;10.032;2022-12-07T05:47:12;2.60;99.90
10873;DHT22;34586;53.616;10.032;2022-12-07T05:49:38;2.60;99.90
10873;DHT22;34586;53.616;10.032;2022-12-07T05:52:04;2.60;99.90
10873;DHT22;34586;53.616;10.032;2022-12-07T05:54:29;2.50;99.90
10873;DHT22;34586;53.616;10.032;2022-12-07T05:56:55;2.50;99.90
10873;DHT22;34586;53.616;10.032;2022-12-07T05:59:21;2.60;99.90
10873;DHT22;34586;53.616;10.032;2022-12-07T06:02:04;2.50;99.90
10873;DHT22;34586;53.616;10.032;2022-12-07T06:04:32;2.50;99.90
10873;DHT22;34586;53.616;10.032;2022-12-07T06:06:58;2.50;99.90
10873;DHT22;34586;53.616;10.032;2022-12-07T06:09:26;2.50;99.90
10873;DHT22;34586;53.616;10.032;2022-12-07T06:11:52;2.50;99.90
10873;DHT22;34586;53.616;10.032;2022-12-07T06:14:36;2.50;99.90
10873;DHT22;34586;53.616;10.032;2022-12-07T06:17:01;2.50;99.90
10873;DHT22;34586;53.616;10.032;2022-12-07T06:19:27;2.40;99.90
10873;DHT22;34586;53.616;10.032;2022-12-07T06:21:54;2.40;99.90
10873;DHT22;34586;53.616;10.032;2022-12-07T06:24:19;2.40;99.90
10873;DHT22;34586;53.616;10.032;2022-12-07T06:26:45;2.40;99.90
10873;DHT22;34586;53.616;10.032;2022-12-07T06:29:12;2.40;99.90
10873;DHT22;34586;53.616;10.032;2022-12-07T06:31:37;2.40;99.90
10873;DHT22;34586;53.616;10.032;2022-12-07T06:34:14;2.40;99.90
10873;DHT22;34586;53.616;10.032;2022-12-07T06:36:41;2.40;99.90
10873;DHT22;34586;53.616;10.032;2022-12-07T06:39:07;2.40;99.90
10873;DHT22;34586;53.616;10.032;2022-12-07T06:41:35;2.30;99.90
10873;DHT22;34586;53.616;10.032;2022-12-07T06:44:01;2.30;99.90
10873;DHT22;34586;53.616;10.032;2022-12-07T06:46:26;2.40;99.90
10873;DHT22;34586;53.616;10.032;2022-12-07T06:48:52;2.40;99.90
10873;DHT22;34586;53.616;10.032;2022-12-07T06:51:17;2.50;99.90
10873;DHT22;34586;53.616;10.032;2022-12-07T06:53:43;2.50;99.90
10873;DHT22;34586;53.616;10.032;2022-12-07T06:56:09;2.60;99.90
10873;DHT22;34586;53.616;10.032;2022-12-07T06:58:34;2.60;99.90
10873;DHT22;34586;53.616;10.032;2022-12-07T07:01:00;2.70;99.90
10873;DHT22;34586;53.616;10.032;2022-12-07T07:03:25;2.70;99.90
10873;DHT22;34586;53.616;10.032;2022-12-07T07:05:51;2.70;99.90
10873;DHT22;34586;53.616;10.032;2022-12-07T07:08:17;2.70;99.90
10873;DHT22;34586;53.616;10.032;2022-12-07T07:10:42;2.70;99.90
10873;DHT22;34586;53.616;10.032;2022-12-07T07:13:08;2.80;99.90
10873;DHT22;34586;53.616;10.032;2022-12-07T07:15:34;2.80;99.90
10873;DHT22;34586;53.616;10.032;2022-12-07T07:18:00;2.80;99.90
10873;DHT22;34586;53.616;10.032;2022-12-07T07:20:26;2.80;99.90
10873;DHT22;34586;53.616;10.032;2022-12-07T07:22:55;2.90;99.90
10873;DHT22;34586;53.616;10.032;2022-12-07T07:25:21;2.90;99.90
10873;DHT22;34586;53.616;10.032;2022-12-07T07:27:47;2.90;99.90
10873;DHT22;34586;53.616;10.032;2022-12-07T07:30:13;2.90;99.90
10873;DHT22;34586;53.616;10.032;2022-12-07T07:32:39;2.90;99.90
10873;DHT22;34586;53.616;10.032;2022-12-07T07:35:04;2.90;99.90
10873;DHT22;34586;53.616;10.032;2022-12-07T07:37:30;3.00;99.90
10873;DHT22;34586;53.616;10.032;2022-12-07T07:39:56;2.90;99.90
10873;DHT22;34586;53.616;10.032;2022-12-07T07:42:22;3.00;99.90
10873;DHT22;34586;53.616;10.032;2022-12-07T07:44:47;3.00;99.90
10873;DHT22;34586;53.616;10.032;2022-12-07T07:47:13;3.00;99.90
10873;DHT22;34586;53.616;10.032;2022-12-07T07:49:38;3.00;99.90
10873;DHT22;34586;53.616;10.032;2022-12-07T07:52:05;3.10;99.90
10873;DHT22;34586;53.616;10.032;2022-12-07T07:54:31;3.10;99.90
10873;DHT22;34586;53.616;10.032;2022-12-07T07:56:57;3.00;99.90
10873;DHT22;34586;53.616;10.032;2022-12-07T07:59:23;3.10;99.90
10873;DHT22;34586;53.616;10.032;2022-12-07T08:01:48;3.10;99.90
10873;DHT22;34586;53.616;10.032;2022-12-07T08:04:14;3.20;99.90
10873;DHT22;34586;53.616;10.032;2022-12-07T08:06:40;3.20;99.90
10873;DHT22;34586;53.616;10.032;2022-12-07T08:09:07;3.20;99.90
10873;DHT22;34586;53.616;10.032;2022-12-07T08:11:33;3.20;99.90
10873;DHT22;34586;53.616;10.032;2022-12-07T08:13:59;3.20;99.90
10873;DHT22;34586;53.616;10.032;2022-12-07T08:16:24;3.20;99.90
10873;DHT22;34586;53.616;10.032;2022-12-07T08:18:50;3.20;99.90
10873;DHT22;34586;53.616;10.032;2022-12-07T08:21:16;3.20;99.90
10873;DHT22;34586;53.616;10.032;2022-12-07T08:23:42;3.30;99.90
10873;DHT22;34586;53.616;10.032;2022-12-07T08:26:10;3.30;99.90
10873;DHT22;34586;53.616;10.032;2022-12-07T08:28:37;3.30;99.90
10873;DHT22;34586;53.616;10.032;2022-12-07T08:31:05;3.30;99.90
10873;DHT22;34586;53.616;10.032;2022-12-07T08:33:31;3.40;99.90
10873;DHT22;34586;53.616;10.032;2022-12-07T08:36:05;3.40;99.90
10873;DHT22;34586;53.616;10.032;2022-12-07T08:38:31;3.40;99.90
10873;DHT22;34586;53.616;10.032;2022-12-07T08:40:58;3.50;99.90
10873;DHT22;34586;53.616;10.032;2022-12-07T08:43:24;3.50;99.90
10873;DHT22;34586;53.616;10.032;2022-12-07T08:46:00;3.50;99.90
10873;DHT22;34586;53.616;10.032;2022-12-07T08:48:29;3.60;99.90
10873;DHT22;34586;53.616;10.032;2022-12-07T08:50:56;3.60;99.90
10873;DHT22;34586;53.616;10.032;2022-12-07T08:53:22;3.60;99.90
10873;DHT22;34586;53.616;10.032;2022-12-07T08:55:48;3.70;99.90
10873;DHT22;34586;53.616;10.032;2022-12-07T08:58:14;3.70;99.90
10873;DHT22;34586;53.616;10.032;2022-12-07T09:00:40;3.80;99.90
10873;DHT22;34586;53.616;10.032;2022-12-07T09:03:06;3.80;99.90
10873;DHT22;34586;53.616;10.032;2022-12-07T09:05:32;3.80;99.90
10873;DHT22;34586;53.616;10.032;2022-12-07T09:08:01;3.90;99.90
10873;DHT22;34586;53.616;10.032;2022-12-07T09:10:28;3.90;99.90
10873;DHT22;34586;53.616;10.032;2022-12-07T09:12:53;4.00;99.90
10873;DHT22;34586;53.616;10.032;2022-12-07T09:15:19;4.00;99.90
10873;DHT22;34586;53.616;10.032;2022-12-07T09:17:44;4.10;99.90
10873;DHT22;34586;53.616;10.032;2022-12-07T09:20:10;4.10;99.90
10873;DHT22;34586;53.616;10.032;2022-12-07T09:22:36;4.10;99.90
10873;DHT22;34586;53.616;10.032;2022-12-07T09:25:03;4.20;99.90
10873;DHT22;34586;53.616;10.032;2022-12-07T09:27:28;4.20;99.90
10873;DHT22;34586;53.616;10.032;2022-12-07T09:29:54;4.30;90.90
10873;DHT22;34586;53.616;10.032;2022-12-07T09:32:20;4.30;86.00
10873;DHT22;34586;53.616;10.032;2022-12-07T09:34:45;4.40;81.10
10873;DHT22;34586;53.616;10.032;2022-12-07T09:37:11;4.50;80.30
10873;DHT22;34586;53.616;10.032;2022-12-07T09:39:40;4.50;60.60
10873;DHT22;34586;53.616;10.032;2022-12-07T09:42:07;4.50;55.70
10873;DHT22;34586;53.616;10.032;2022-12-07T09:44:34;4.60;47.30
10873;DHT22;34586;53.616;10.032;2022-12-07T09:47:00;4.60;32.90
10873;DHT22;34586;53.616;10.032;2022-12-07T09:49:29;4.60;63.90
10873;DHT22;34586;53.616;10.032;2022-12-07T09:52:17;4.60;55.90
10873;DHT22;34586;53.616;10.032;2022-12-07T09:54:48;4.60;59.30
10873;DHT22;34586;53.616;10.032;2022-12-07T09:57:15;4.70;47.90
10873;DHT22;34586;53.616;10.032;2022-12-07T09:59:41;4.70;29.00
10873;DHT22;34586;53.616;10.032;2022-12-07T10:02:35;4.80;1.00
10873;DHT22;34586;53.616;10.032;2022-12-07T10:05:04;4.80;32.90
10873;DHT22;34586;53.616;10.032;2022-12-07T10:07:30;4.80;1.00
10873;DHT22;34586;53.616;10.032;2022-12-07T10:09:56;4.80;17.30
10873;DHT22;34586;53.616;10.032;2022-12-07T10:12:21;4.80;1.00
10873;DHT22;34586;53.616;10.032;2022-12-07T10:14:58;4.80;14.50
10873;DHT22;34586;53.616;10.032;2022-12-07T10:17:36;4.80;35.40
10873;DHT22;34586;53.616;10.032;2022-12-07T10:20:17;4.90;27.50
10873;DHT22;34586;53.616;10.032;2022-12-07T10:22:57;4.80;2.60
10873;DHT22;34586;53.616;10.032;2022-12-07T10:25:27;4.90;28.90
10873;DHT22;34586;53.616;10.032;2022-12-07T10:28:08;5.00;6.60
10873;DHT22;34586;53.616;10.032;2022-12-07T10:31:02;5.20;3.60
10873;DHT22;34586;53.616;10.032;2022-12-07T10:35:59;5.10;1.00
10873;DHT22;34586;53.616;10.032;2022-12-07T10:38:27;5.10;1.00
10873;DHT22;34586;53.616;10.032;2022-12-07T10:41:06;5.10;1.00
10873;DHT22;34586;53.616;10.032;2022-12-07T10:43:33;5.00;1.00
10873;DHT22;34586;53.616;10.032;2022-12-07T10:48:45;5.00;24.10
10873;DHT22;34586;53.616;10.032;2022-12-07T10:54:24;5.10;4.10
10873;DHT22;34586;53.616;10.032;2022-12-07T11:00:00;5.20;1.00
10873;DHT22;34586;53.616;10.032;2022-12-07T11:11:00;5.20;1.00
10873;DHT22;34586;53.616;10.032;2022-12-07T11:13:51;5.20;1.00
10873;DHT22;34586;53.616;10.032;2022-12-07T11:35:59;5.40;99.90
10873;DHT22;34586;53.616;10.032;2022-12-07T11:39:46;5.40;99.90
10873;DHT22;34586;53.616;10.032;2022-12-07T11:41:41;5.40;99.90
10873;DHT22;34586;53.616;10.032;2022-12-07T11:44:31;5.40;99.90
10873;DHT22;34586;53.616;10.032;2022-12-07T11:47:10;5.50;1.00
10873;DHT22;34586;53.616;10.032;2022-12-07T11:49:56;5.40;1.00
10873;DHT22;34586;53.616;10.032;2022-12-07T11:52:45;5.40;1.00
10873;DHT22;34586;53.616;10.032;2022-12-07T12:03:45;5.20;1.00
10873;DHT22;34586;53.616;10.032;2022-12-07T12:06:11;5.40;1.00
10873;DHT22;34586;53.616;10.032;2022-12-07T12:08:43;5.40;1.00
10873;DHT22;34586;53.616;10.032;2022-12-07T12:11:39;5.40;68.00
10873;DHT22;34586;53.616;10.032;2022-12-07T12:22:40;5.50;99.90
10873;DHT22;34586;53.616;10.032;2022-12-07T12:25:21;5.50;99.90
10873;DHT22;34586;53.616;10.032;2022-12-07T12:27:48;5.40;99.90
10873;DHT22;34586;53.616;10.032;2022-12-07T12:32:53;5.40;1.00
10873;DHT22;34586;53.616;10.032;2022-12-07T12:35:35;5.50;65.60
10873;DHT22;34586;53.616;10.032;2022-12-07T12:38:32;5.50;99.90
10873;DHT22;34586;53.616;10.032;2022-12-07T12:41:02;5.60;1.00
10873;DHT22;34586;53.616;10.032;2022-12-07T12:43:43;5.70;42.90
10873;DHT22;34586;53.616;10.032;2022-12-07T12:46:37;5.70;1.00
10873;DHT22;34586;53.616;10.032;2022-12-07T12:51:58;5.70;99.90
10873;DHT22;34586;53.616;10.032;2022-12-07T12:57:22;5.60;99.90
10873;DHT22;34586;53.616;10.032;2022-12-07T13:18:36;5.30;1.00
10873;DHT22;34586;53.616;10.032;2022-12-07T13:31:39;5.90;99.90
10873;DHT22;34586;53.616;10.032;2022-12-07T13:34:35;5.50;99.90
10873;DHT22;34586;53.616;10.032;2022-12-07T13:39:51;5.50;99.90
10873;DHT22;34586;53.616;10.032;2022-12-07T13:42:25;5.40;1.00
10873;DHT22;34586;53.616;10.032;2022-12-07T13:44:56;5.40;1.00
10873;DHT22;34586;53.616;10.032;2022-12-07T13:49:56;5.30;1.00
10873;DHT22;34586;53.616;10.032;2022-12-07T13:52:27;5.30;1.00
10873;DHT22;34586;53.616;10.032;2022-12-07T13:57:31;5.30;1.00
10873;DHT22;34586;53.616;10.032;2022-12-07T13:59:59;5.30;1.00
10873;DHT22;34586;53.616;10.032;2022-12-07T14:02:30;5.30;1.00
10873;DHT22;34586;53.616;10.032;2022-12-07T14:07:58;5.20;99.90
10873;DHT22;34586;53.616;10.032;2022-12-07T14:12:58;5.10;99.90
10873;DHT22;34586;53.616;10.032;2022-12-07T14:15:29;5.00;1.00
10873;DHT22;34586;53.616;10.032;2022-12-07T14:17:56;4.90;96.80
10873;DHT22;34586;53.616;10.032;2022-12-07T14:20:30;4.90;99.90
10873;DHT22;34586;53.616;10.032;2022-12-07T14:22:56;4.90;1.00
10873;DHT22;34586;53.616;10.032;2022-12-07T14:25:24;4.80;1.00
10873;DHT22;34586;53.616;10.032;2022-12-07T14:28:01;4.70;99.90
10873;DHT22;34586;53.616;10.032;2022-12-07T14:30:31;4.70;99.90
10873;DHT22;34586;53.616;10.032;2022-12-07T14:33:02;4.70;99.90
10873;DHT22;34586;53.616;10.032;2022-12-07T14:35:30;4.60;1.00
10873;DHT22;34586;53.616;10.032;2022-12-07T14:37:56;4.70;1.00
10873;DHT22;34586;53.616;10.032;2022-12-07T14:40:25;4.60;1.00
10873;DHT22;34586;53.616;10.032;2022-12-07T14:42:55;4.50;1.00
10873;DHT22;34586;53.616;10.032;2022-12-07T14:45:23;4.50;21.40
10873;DHT22;34586;53.616;10.032;2022-12-07T14:47:49;4.40;1.00
10873;DHT22;34586;53.616;10.032;2022-12-07T14:50:17;4.30;1.00
10873;DHT22;34586;53.616;10.032;2022-12-07T14:53:28;4.20;99.90
10873;DHT22;34586;53.616;10.032;2022-12-07T14:55:34;4.20;99.90
10873;DHT22;34586;53.616;10.032;2022-12-07T14:58:00;4.10;99.90
10873;DHT22;34586;53.616;10.032;2022-12-07T15:00:27;4.00;1.00
10873;DHT22;34586;53.616;10.032;2022-12-07T15:02:53;3.90;99.90
10873;DHT22;34586;53.616;10.032;2022-12-07T15:05:19;3.90;99.90
10873;DHT22;34586;53.616;10.032;2022-12-07T15:07:46;3.90;99.90
10873;DHT22;34586;53.616;10.032;2022-12-07T15:10:24;3.80;1.00
10873;DHT22;34586;53.616;10.032;2022-12-07T15:12:55;3.80;1.00
10873;DHT22;34586;53.616;10.032;2022-12-07T15:15:40;3.80;1.00
10873;DHT22;34586;53.616;10.032;2022-12-07T15:18:06;3.70;99.90
10873;DHT22;34586;53.616;10.032;2022-12-07T15:20:32;3.70;19.30
10873;DHT22;34586;53.616;10.032;2022-12-07T15:22:58;3.70;51.10
10873;DHT22;34586;53.616;10.032;2022-12-07T15:25:23;3.70;1.00
10873;DHT22;34586;53.616;10.032;2022-12-07T15:27:49;3.60;99.90
10873;DHT22;34586;53.616;10.032;2022-12-07T15:30:15;3.60;99.90
10873;DHT22;34586;53.616;10.032;2022-12-07T15:32:41;3.60;1.00
10873;DHT22;34586;53.616;10.032;2022-12-07T15:35:07;3.50;1.00
10873;DHT22;34586;53.616;10.032;2022-12-07T15:37:33;3.50;1.00
10873;DHT22;34586;53.616;10.032;2022-12-07T15:39:58;3.50;99.90
10873;DHT22;34586;53.616;10.032;2022-12-07T15:42:24;3.50;1.00
10873;DHT22;34586;53.616;10.032;2022-12-07T15:44:50;3.50;1.00
10873;DHT22;34586;53.616;10.032;2022-12-07T15:47:39;3.40;99.90
10873;DHT22;34586;53.616;10.032;2022-12-07T15:50:07;3.30;99.90
10873;DHT22;34586;53.616;10.032;2022-12-07T15:52:33;3.20;1.00
10873;DHT22;34586;53.616;10.032;2022-12-07T15:54:59;3.10;1.00
10873;DHT22;34586;53.616;10.032;2022-12-07T15:57:31;3.00;1.00
10873;DHT22;34586;53.616;10.032;2022-12-07T15:59:57;3.00;1.00
10873;DHT22;34586;53.616;10.032;2022-12-07T16:02:24;2.90;1.00
10873;DHT22;34586;53.616;10.032;2022-12-07T16:04:51;2.90;1.10
10873;DHT22;34586;53.616;10.032;2022-12-07T16:07:17;2.80;1.00
10873;DHT22;34586;53.616;10.032;2022-12-07T16:09:44;2.80;99.90
10873;DHT22;34586;53.616;10.032;2022-12-07T16:12:12;2.80;1.00
10873;DHT22;34586;53.616;10.032;2022-12-07T16:14:40;2.80;99.90
10873;DHT22;34586;53.616;10.032;2022-12-07T16:17:06;2.80;1.00
10873;DHT22;34586;53.616;10.032;2022-12-07T16:19:32;2.80;1.00
10873;DHT22;34586;53.616;10.032;2022-12-07T16:21:58;2.90;88.10
10873;DHT22;34586;53.616;10.032;2022-12-07T16:24:24;2.90;1.00
10873;DHT22;34586;53.616;10.032;2022-12-07T16:26:50;2.80;99.90
10873;DHT22;34586;53.616;10.032;2022-12-07T16:29:17;2.80;1.00
10873;DHT22;34586;53.616;10.032;2022-12-07T16:31:43;2.90;17.50
10873;DHT22;34586;53.616;10.032;2022-12-07T16:34:09;2.90;99.90
10873;DHT22;34586;53.616;10.032;2022-12-07T16:36:35;2.80;99.90
10873;DHT22;34586;53.616;10.032;2022-12-07T16:39:01;2.80;1.00
10873;DHT22;34586;53.616;10.032;2022-12-07T16:41:27;2.70;1.00
10873;DHT22;34586;53.616;10.032;2022-12-07T16:43:52;2.60;99.90
10873;DHT22;34586;53.616;10.032;2022-12-07T16:46:18;2.60;1.00
10873;DHT22;34586;53.616;10.032;2022-12-07T16:48:44;2.60;58.30
10873;DHT22;34586;53.616;10.032;2022-12-07T16:51:11;2.50;1.00
10873;DHT22;34586;53.616;10.032;2022-12-07T16:53:39;2.40;1.00
10873;DHT22;34586;53.616;10.032;2022-12-07T16:56:13;2.40;99.90
10873;DHT22;34586;53.616;10.032;2022-12-07T16:58:40;2.40;1.00
10873;DHT22;34586;53.616;10.032;2022-12-07T17:01:19;2.30;1.00
10873;DHT22;34586;53.616;10.032;2022-12-07T17:03:45;2.30;8.70
10873;DHT22;34586;53.616;10.032;2022-12-07T17:06:19;2.20;1.00
10873;DHT22;34586;53.616;10.032;2022-12-07T17:08:46;2.30;99.90
10873;DHT22;34586;53.616;10.032;2022-12-07T17:11:16;2.30;1.00
10873;DHT22;34586;53.616;10.032;2022-12-07T17:13:41;2.30;1.00
10873;DHT22;34586;53.616;10.032;2022-12-07T17:16:26;2.30;99.90
10873;DHT22;34586;53.616;10.032;2022-12-07T17:18:52;2.30;1.00
10873;DHT22;34586;53.616;10.032;2022-12-07T17:21:17;2.30;99.90
10873;DHT22;34586;53.616;10.032;2022-12-07T17:23:43;2.30;99.90
10873;DHT22;34586;53.616;10.032;2022-12-07T17:26:12;2.30;1.00
10873;DHT22;34586;53.616;10.032;2022-12-07T17:28:39;2.40;1.00
10873;DHT22;34586;53.616;10.032;2022-12-07T17:31:07;2.40;1.00
10873;DHT22;34586;53.616;10.032;2022-12-07T17:33:33;2.40;1.00
10873;DHT22;34586;53.616;10.032;2022-12-07T17:35:59;2.30;1.00
10873;DHT22;34586;53.616;10.032;2022-12-07T17:38:25;2.40;1.00
10873;DHT22;34586;53.616;10.032;2022-12-07T17:40:50;2.40;36.60
10873;DHT22;34586;53.616;10.032;2022-12-07T17:43:16;2.40;99.90
10873;DHT22;34586;53.616;10.032;2022-12-07T17:45:42;2.40;99.90
10873;DHT22;34586;53.616;10.032;2022-12-07T17:48:07;2.40;99.90
10873;DHT22;34586;53.616;10.032;2022-12-07T17:50:33;2.30;1.00
10873;DHT22;34586;53.616;10.032;2022-12-07T17:53:17;2.30;99.90
10873;DHT22;34586;53.616;10.032;2022-12-07T17:55:43;2.30;99.90
10873;DHT22;34586;53.616;10.032;2022-12-07T17:58:08;2.30;99.90